sensor_id;sensor_type;location;lat;lon;timestamp;pressure;altitude;pressure_sealevel;temperature;humidity
19831;BME280;10076;52.008;4.708;2023-05-07T00:00:32;101630.41;;;17.60;100.00
19831;BME280;10076;52.008;4.708;2023-05-07T00:02:59;101636.78;;;17.48;100.00
19831;BME280;10076;52.008;4.708;2023-05-07T00:05:24;101637.97;;;17.55;100.00
19831;BME280;10076;52.008;4.708;2023-05-07T00:07:49;101636.66;;;17.50;100.00
19831;BME280;10076;52.008;4.708;2023-05-07T00:10:15;101645.84;;;17.57;100.00
19831;BME280;10076;52.008;4.708;2023-05-07T00:12:40;101643.88;;;17.59;100.00
19831;BME280;10076;52.008;4.708;2023-05-07T00:15:06;101646.66;;;17.57;100.00
19831;BME280;10076;52.008;4.708;2023-05-07T00:17:32;101647.19;;;17.51;100.00
19831;BME280;10076;52.008;4.708;2023-05-07T00:19:58;101651.75;;;17.60;100.00
19831;BME280;10076;52.008;4.708;2023-05-07T00:22:23;101647.13;;;17.62;100.00
19831;BME280;10076;52.008;4.708;2023-05-07T00:24:48;101645.03;;;17.66;100.00
19831;BME280;10076;52.008;4.708;2023-05-07T00:27:14;101643.06;;;17.68;100.00
19831;BME280;10076;52.008;4.708;2023-05-07T00:29:39;101642.69;;;17.72;100.00
19831;BME280;10076;52.008;4.708;2023-05-07T00:32:04;101638.31;;;17.71;100.00
19831;BME280;10076;52.008;4.708;2023-05-07T00:34:30;101632.63;;;17.65;100.00
19831;BME280;10076;52.008;4.708;2023-05-07T00:36:55;101634.66;;;17.72;100.00
19831;BME280;10076;52.008;4.708;2023-05-07T00:39:20;101634.53;;;17.74;100.00
19831;BME280;10076;52.008;4.708;2023-05-07T00:41:46;101628.31;;;17.64;100.00
19831;BME280;10076;52.008;4.708;2023-05-07T00:44:12;101636.19;;;17.65;100.00
19831;BME280;10076;52.008;4.708;2023-05-07T00:46:37;101636.63;;;17.70;100.00
19831;BME280;10076;52.008;4.708;2023-05-07T00:49:03;101630.50;;;17.89;100.00
19831;BME280;10076;52.008;4.708;2023-05-07T00:51:28;101633.69;;;17.83;100.00
19831;BME280;10076;52.008;4.708;2023-05-07T00:53:54;101636.13;;;17.86;100.00
19831;BME280;10076;52.008;4.708;2023-05-07T00:56:21;101632.88;;;17.82;100.00
19831;BME280;10076;52.008;4.708;2023-05-07T00:58:47;101632.16;;;17.80;100.00
19831;BME280;10076;52.008;4.708;2023-05-07T01:01:13;101635.25;;;17.85;100.00
19831;BME280;10076;52.008;4.708;2023-05-07T01:03:38;101627.66;;;17.81;100.00
19831;BME280;10076;52.008;4.708;2023-05-07T01:06:04;101628.06;;;17.76;100.00
19831;BME280;10076;52.008;4.708;2023-05-07T01:08:31;101628.25;;;17.84;100.00
19831;BME280;10076;52.008;4.708;2023-05-07T01:10:57;101628.53;;;17.91;100.00
19831;BME280;10076;52.008;4.708;2023-05-07T01:13:24;101621.16;;;17.74;100.00
19831;BME280;10076;52.008;4.708;2023-05-07T01:15:50;101616.94;;;17.71;100.00
19831;BME280;10076;52.008;4.708;2023-05-07T01:18:15;101618.22;;;17.77;100.00
19831;BME280;10076;52.008;4.708;2023-05-07T01:20:41;101616.41;;;17.77;100.00
19831;BME280;10076;52.008;4.708;2023-05-07T01:23:06;101602.28;;;17.66;100.00
19831;BME280;10076;52.008;4.708;2023-05-07T01:25:32;101617.47;;;17.65;100.00
19831;BME280;10076;52.008;4.708;2023-05-07T01:27:57;101620.69;;;17.59;100.00
19831;BME280;10076;52.008;4.708;2023-05-07T01:30:25;101621.06;;;17.55;100.00
19831;BME280;10076;52.008;4.708;2023-05-07T01:32:53;101621.94;;;17.55;100.00
19831;BME280;10076;52.008;4.708;2023-05-07T01:35:25;101613.06;;;17.55;100.00
19831;BME280;10076;52.008;4.708;2023-05-07T01:37:52;101616.78;;;17.43;100.00
19831;BME280;10076;52.008;4.708;2023-05-07T01:40:19;101613.22;;;17.33;100.00
19831;BME280;10076;52.008;4.708;2023-05-07T01:42:45;101621.03;;;17.45;100.00
19831;BME280;10076;52.008;4.708;2023-05-07T01:45:11;101614.56;;;17.48;100.00
19831;BME280;10076;52.008;4.708;2023-05-07T01:47:37;101611.59;;;17.41;100.00
19831;BME280;10076;52.008;4.708;2023-05-07T01:50:05;101617.75;;;17.42;100.00
19831;BME280;10076;52.008;4.708;2023-05-07T01:52:31;101618.78;;;17.41;100.00
19831;BME280;10076;52.008;4.708;2023-05-07T01:54:56;101604.69;;;17.39;100.00
19831;BME280;10076;52.008;4.708;2023-05-07T01:57:21;101617.66;;;17.43;100.00
19831;BME280;10076;52.008;4.708;2023-05-07T01:59:47;101610.47;;;17.44;100.00
19831;BME280;10076;52.008;4.708;2023-05-07T02:02:12;101612.56;;;17.40;100.00
19831;BME280;10076;52.008;4.708;2023-05-07T02:04:37;101612.56;;;17.40;100.00
19831;BME280;10076;52.008;4.708;2023-05-07T02:07:03;101605.53;;;17.39;100.00
19831;BME280;10076;52.008;4.708;2023-05-07T02:09:28;101611.88;;;17.38;100.00
19831;BME280;10076;52.008;4.708;2023-05-07T02:11:53;101602.47;;;17.44;100.00
19831;BME280;10076;52.008;4.708;2023-05-07T02:14:19;101610.34;;;17.45;100.00
19831;BME280;10076;52.008;4.708;2023-05-07T02:16:45;101604.31;;;17.43;100.00
19831;BME280;10076;52.008;4.708;2023-05-07T02:19:10;101606.00;;;17.44;100.00
19831;BME280;10076;52.008;4.708;2023-05-07T02:21:35;101609.44;;;17.35;100.00
19831;BME280;10076;52.008;4.708;2023-05-07T02:24:01;101610.63;;;17.42;100.00
19831;BME280;10076;52.008;4.708;2023-05-07T02:26:26;101615.22;;;17.40;100.00
19831;BME280;10076;52.008;4.708;2023-05-07T02:28:51;101619.88;;;17.38;100.00
19831;BME280;10076;52.008;4.708;2023-05-07T02:31:17;101619.59;;;17.41;100.00
19831;BME280;10076;52.008;4.708;2023-05-07T02:33:42;101620.31;;;17.43;100.00
19831;BME280;10076;52.008;4.708;2023-05-07T02:36:08;101621.53;;;17.39;100.00
19831;BME280;10076;52.008;4.708;2023-05-07T02:38:34;101623.78;;;17.34;100.00
19831;BME280;10076;52.008;4.708;2023-05-07T02:40:59;101631.53;;;17.37;100.00
19831;BME280;10076;52.008;4.708;2023-05-07T02:43:25;101625.16;;;17.29;100.00
19831;BME280;10076;52.008;4.708;2023-05-07T02:46:06;101622.66;;;17.37;100.00
19831;BME280;10076;52.008;4.708;2023-05-07T02:48:32;101630.56;;;17.38;100.00
19831;BME280;10076;52.008;4.708;2023-05-07T02:50:59;101622.72;;;17.46;100.00
19831;BME280;10076;52.008;4.708;2023-05-07T02:53:24;101620.13;;;17.35;100.00
19831;BME280;10076;52.008;4.708;2023-05-07T02:55:55;101618.00;;;17.30;100.00
19831;BME280;10076;52.008;4.708;2023-05-07T02:58:21;101624.06;;;17.32;100.00
19831;BME280;10076;52.008;4.708;2023-05-07T03:00:47;101616.72;;;17.33;100.00
19831;BME280;10076;52.008;4.708;2023-05-07T03:03:13;101621.31;;;17.42;100.00
19831;BME280;10076;52.008;4.708;2023-05-07T03:05:38;101619.66;;;17.51;100.00
19831;BME280;10076;52.008;4.708;2023-05-07T03:08:04;101620.56;;;17.40;100.00
19831;BME280;10076;52.008;4.708;2023-05-07T03:10:29;101623.25;;;17.40;100.00
19831;BME280;10076;52.008;4.708;2023-05-07T03:12:55;101623.84;;;17.44;100.00
19831;BME280;10076;52.008;4.708;2023-05-07T03:15:21;101619.34;;;17.44;100.00
19831;BME280;10076;52.008;4.708;2023-05-07T03:17:47;101617.91;;;17.40;100.00
19831;BME280;10076;52.008;4.708;2023-05-07T03:20:12;101617.00;;;17.51;100.00
19831;BME280;10076;52.008;4.708;2023-05-07T03:22:38;101623.97;;;17.42;100.00
19831;BME280;10076;52.008;4.708;2023-05-07T03:25:03;101616.72;;;17.33;100.00
19831;BME280;10076;52.008;4.708;2023-05-07T03:27:29;101613.53;;;17.39;100.00
19831;BME280;10076;52.008;4.708;2023-05-07T03:29:54;101615.69;;;17.45;100.00
19831;BME280;10076;52.008;4.708;2023-05-07T03:32:20;101618.34;;;17.45;100.00
19831;BME280;10076;52.008;4.708;2023-05-07T03:34:45;101611.91;;;17.48;100.00
19831;BME280;10076;52.008;4.708;2023-05-07T03:37:10;101604.88;;;17.47;100.00
19831;BME280;10076;52.008;4.708;2023-05-07T03:39:36;101612.38;;;17.53;100.00
19831;BME280;10076;52.008;4.708;2023-05-07T03:42:01;101605.03;;;17.55;100.00
19831;BME280;10076;52.008;4.708;2023-05-07T03:44:26;101603.34;;;17.44;100.00
19831;BME280;10076;52.008;4.708;2023-05-07T03:46:51;101612.13;;;17.35;100.00
19831;BME280;10076;52.008;4.708;2023-05-07T03:49:17;101620.31;;;17.43;100.00
19831;BME280;10076;52.008;4.708;2023-05-07T03:51:42;101622.28;;;17.41;100.00
19831;BME280;10076;52.008;4.708;2023-05-07T03:54:08;101626.31;;;17.36;100.00
19831;BME280;10076;52.008;4.708;2023-05-07T03:56:33;101628.88;;;17.37;100.00
19831;BME280;10076;52.008;4.708;2023-05-07T03:59:00;101624.03;;;17.52;100.00
19831;BME280;10076;52.008;4.708;2023-05-07T04:01:25;101623.88;;;17.53;100.00
19831;BME280;10076;52.008;4.708;2023-05-07T04:03:50;101623.88;;;17.53;100.00
19831;BME280;10076;52.008;4.708;2023-05-07T04:06:16;101633.34;;;17.37;100.00
19831;BME280;10076;52.008;4.708;2023-05-07T04:08:42;101633.94;;;17.40;100.00
19831;BME280;10076;52.008;4.708;2023-05-07T04:11:07;101633.22;;;17.38;100.00
19831;BME280;10076;52.008;4.708;2023-05-07T04:13:33;101632.44;;;17.47;100.00
19831;BME280;10076;52.008;4.708;2023-05-07T04:15:58;101636.06;;;17.46;100.00
19831;BME280;10076;52.008;4.708;2023-05-07T04:18:23;101634.78;;;17.41;100.00
19831;BME280;10076;52.008;4.708;2023-05-07T04:20:48;101633.94;;;17.40;100.00
19831;BME280;10076;52.008;4.708;2023-05-07T04:23:17;101645.25;;;17.53;100.00
19831;BME280;10076;52.008;4.708;2023-05-07T04:25:42;101645.56;;;17.39;100.00
19831;BME280;10076;52.008;4.708;2023-05-07T04:28:07;101645.78;;;17.47;100.00
19831;BME280;10076;52.008;4.708;2023-05-07T04:30:33;101637.50;;;17.50;100.00
19831;BME280;10076;52.008;4.708;2023-05-07T04:32:58;101635.94;;;17.48;100.00
19831;BME280;10076;52.008;4.708;2023-05-07T04:35:23;101641.75;;;17.53;100.00
19831;BME280;10076;52.008;4.708;2023-05-07T04:37:49;101635.59;;;17.62;100.00
19831;BME280;10076;52.008;4.708;2023-05-07T04:40:14;101632.63;;;17.65;100.00
19831;BME280;10076;52.008;4.708;2023-05-07T04:42:39;101630.84;;;17.65;100.00
19831;BME280;10076;52.008;4.708;2023-05-07T04:45:05;101623.34;;;17.59;100.00
19831;BME280;10076;52.008;4.708;2023-05-07T04:47:31;101629.81;;;17.57;100.00
19831;BME280;10076;52.008;4.708;2023-05-07T04:49:57;101636.78;;;17.48;100.00
19831;BME280;10076;52.008;4.708;2023-05-07T04:52:23;101633.78;;;17.42;100.00
19831;BME280;10076;52.008;4.708;2023-05-07T04:54:48;101630.06;;;17.54;100.00
19831;BME280;10076;52.008;4.708;2023-05-07T04:57:13;101633.72;;;17.53;100.00
19831;BME280;10076;52.008;4.708;2023-05-07T04:59:39;101640.09;;;17.61;100.00
19831;BME280;10076;52.008;4.708;2023-05-07T05:02:04;101634.47;;;17.64;100.00
19831;BME280;10076;52.008;4.708;2023-05-07T05:04:30;101633.38;;;17.67;100.00
19831;BME280;10076;52.008;4.708;2023-05-07T05:06:55;101641.41;;;17.76;100.00
19831;BME280;10076;52.008;4.708;2023-05-07T05:09:20;101646.94;;;17.84;100.00
19831;BME280;10076;52.008;4.708;2023-05-07T05:11:46;101645.66;;;17.79;100.00
19831;BME280;10076;52.008;4.708;2023-05-07T05:14:11;101646.38;;;17.81;100.00
19831;BME280;10076;52.008;4.708;2023-05-07T05:16:36;101642.31;;;17.86;100.00
19831;BME280;10076;52.008;4.708;2023-05-07T05:19:02;101645.41;;;17.91;100.00
19831;BME280;10076;52.008;4.708;2023-05-07T05:21:27;101654.63;;;18.07;100.00
19831;BME280;10076;52.008;4.708;2023-05-07T05:23:53;101654.47;;;18.09;100.00
19831;BME280;10076;52.008;4.708;2023-05-07T05:26:18;101660.94;;;18.06;100.00
19831;BME280;10076;52.008;4.708;2023-05-07T05:28:43;101658.41;;;18.05;100.00
19831;BME280;10076;52.008;4.708;2023-05-07T05:31:10;101658.97;;;17.99;100.00
19831;BME280;10076;52.008;4.708;2023-05-07T05:33:35;101670.13;;;18.13;100.00
19831;BME280;10076;52.008;4.708;2023-05-07T05:36:00;101670.56;;;18.18;100.00
19831;BME280;10076;52.008;4.708;2023-05-07T05:38:26;101666.09;;;18.19;100.00
19831;BME280;10076;52.008;4.708;2023-05-07T05:40:51;101668.41;;;18.12;100.00
19831;BME280;10076;52.008;4.708;2023-05-07T05:43:16;101680.16;;;18.21;100.00
19831;BME280;10076;52.008;4.708;2023-05-07T05:45:42;101680.59;;;18.26;100.00
19831;BME280;10076;52.008;4.708;2023-05-07T05:48:07;101682.03;;;18.30;100.00
19831;BME280;10076;52.008;4.708;2023-05-07T05:50:33;101681.31;;;18.28;100.00
19831;BME280;10076;52.008;4.708;2023-05-07T05:53:00;101683.06;;;18.08;100.00
19831;BME280;10076;52.008;4.708;2023-05-07T05:55:26;101687.81;;;18.05;100.00
19831;BME280;10076;52.008;4.708;2023-05-07T05:57:51;101688.16;;;17.91;100.00
19831;BME280;10076;52.008;4.708;2023-05-07T06:00:17;101688.34;;;17.99;100.00
19831;BME280;10076;52.008;4.708;2023-05-07T06:02:42;101695.59;;;18.08;100.00
19831;BME280;10076;52.008;4.708;2023-05-07T06:05:08;101696.13;;;18.11;100.00
19831;BME280;10076;52.008;4.708;2023-05-07T06:07:34;101695.66;;;18.27;100.00
19831;BME280;10076;52.008;4.708;2023-05-07T06:10:00;101691.75;;;18.31;100.00
19831;BME280;10076;52.008;4.708;2023-05-07T06:12:25;101694.97;;;18.25;100.00
19831;BME280;10076;52.008;4.708;2023-05-07T06:14:51;101697.56;;;18.15;100.00
19831;BME280;10076;52.008;4.708;2023-05-07T06:17:16;101711.31;;;18.31;100.00
19831;BME280;10076;52.008;4.708;2023-05-07T06:19:41;101709.94;;;18.37;100.00
19831;BME280;10076;52.008;4.708;2023-05-07T06:22:07;101709.63;;;18.40;100.00
19831;BME280;10076;52.008;4.708;2023-05-07T06:24:32;101710.63;;;18.39;100.00
19831;BME280;10076;52.008;4.708;2023-05-07T06:26:57;101707.25;;;18.46;100.00
19831;BME280;10076;52.008;4.708;2023-05-07T06:29:24;101709.94;;;18.56;100.00
19831;BME280;10076;52.008;4.708;2023-05-07T06:31:52;101704.22;;;18.70;100.00
19831;BME280;10076;52.008;4.708;2023-05-07T06:34:17;101714.59;;;18.63;100.00
19831;BME280;10076;52.008;4.708;2023-05-07T06:36:42;101704.91;;;18.62;100.00
19831;BME280;10076;52.008;4.708;2023-05-07T06:39:08;101724.19;;;18.56;100.00
19831;BME280;10076;52.008;4.708;2023-05-07T06:41:33;101726.00;;;18.56;100.00
19831;BME280;10076;52.008;4.708;2023-05-07T06:44:00;101723.06;;;18.59;100.00
19831;BME280;10076;52.008;4.708;2023-05-07T06:46:25;101713.59;;;18.55;100.00
19831;BME280;10076;52.008;4.708;2023-05-07T06:48:51;101710.38;;;18.42;100.00
19831;BME280;10076;52.008;4.708;2023-05-07T06:51:17;101713.47;;;18.47;100.00
19831;BME280;10076;52.008;4.708;2023-05-07T06:53:42;101710.38;;;18.42;100.00
19831;BME280;10076;52.008;4.708;2023-05-07T06:56:08;101707.97;;;18.48;100.00
19831;BME280;10076;52.008;4.708;2023-05-07T06:58:33;101710.66;;;18.48;100.00
19831;BME280;10076;52.008;4.708;2023-05-07T07:00:59;101714.44;;;18.46;100.00
19831;BME280;10076;52.008;4.708;2023-05-07T07:03:24;101715.41;;;18.45;100.00
19831;BME280;10076;52.008;4.708;2023-05-07T07:05:53;101704.72;;;18.45;100.00
19831;BME280;10076;52.008;4.708;2023-05-07T07:08:18;101705.69;;;18.44;100.00
19831;BME280;10076;52.008;4.708;2023-05-07T07:10:46;101708.94;;;18.47;100.00
19831;BME280;10076;52.008;4.708;2023-05-07T07:13:11;101705.44;;;18.47;100.00
19831;BME280;10076;52.008;4.708;2023-05-07T07:15:36;101701.22;;;18.44;100.00
19831;BME280;10076;52.008;4.708;2023-05-07T07:18:02;101704.19;;;18.51;100.00
19831;BME280;10076;52.008;4.708;2023-05-07T07:20:27;101704.59;;;18.56;100.00
19831;BME280;10076;52.008;4.708;2023-05-07T07:22:52;101703.38;;;18.60;100.00
19831;BME280;10076;52.008;4.708;2023-05-07T07:25:18;101704.34;;;18.77;100.00
19831;BME280;10076;52.008;4.708;2023-05-07T07:27:43;101700.84;;;18.86;100.00
19831;BME280;10076;52.008;4.708;2023-05-07T07:30:09;101711.72;;;18.85;100.00
19831;BME280;10076;52.008;4.708;2023-05-07T07:32:34;101703.03;;;19.11;100.00
19831;BME280;10076;52.008;4.708;2023-05-07T07:35:00;101701.00;;;19.32;100.00
19831;BME280;10076;52.008;4.708;2023-05-07T07:37:25;101710.19;;;19.39;100.00
19831;BME280;10076;52.008;4.708;2023-05-07T07:39:51;101703.38;;;19.44;100.00
19831;BME280;10076;52.008;4.708;2023-05-07T07:42:16;101708.88;;;19.62;100.00
19831;BME280;10076;52.008;4.708;2023-05-07T07:44:41;101699.97;;;19.61;100.00
19831;BME280;10076;52.008;4.708;2023-05-07T07:47:06;101701.38;;;19.65;100.00
19831;BME280;10076;52.008;4.708;2023-05-07T07:49:32;101703.50;;;19.62;100.00
19831;BME280;10076;52.008;4.708;2023-05-07T07:51:57;101704.44;;;19.80;100.00
19831;BME280;10076;52.008;4.708;2023-05-07T07:54:24;101709.63;;;20.00;100.00
19831;BME280;10076;52.008;4.708;2023-05-07T07:56:50;101701.53;;;20.36;100.00
19831;BME280;10076;52.008;4.708;2023-05-07T07:59:15;101702.56;;;20.80;100.00
19831;BME280;10076;52.008;4.708;2023-05-07T08:01:44;101699.91;;;20.97;100.00
19831;BME280;10076;52.008;4.708;2023-05-07T08:04:10;101708.78;;;21.15;100.00
19831;BME280;10076;52.008;4.708;2023-05-07T08:06:35;101714.69;;;21.18;100.00
19831;BME280;10076;52.008;4.708;2023-05-07T08:09:00;101715.97;;;21.32;100.00
19831;BME280;10076;52.008;4.708;2023-05-07T08:11:26;101712.59;;;21.47;100.00
19831;BME280;10076;52.008;4.708;2023-05-07T08:13:51;101720.59;;;21.56;100.00
19831;BME280;10076;52.008;4.708;2023-05-07T08:16:17;101715.66;;;21.69;100.00
19831;BME280;10076;52.008;4.708;2023-05-07T08:18:42;101720.28;;;21.85;100.00
19831;BME280;10076;52.008;4.708;2023-05-07T08:21:08;101721.22;;;22.01;100.00
19831;BME280;10076;52.008;4.708;2023-05-07T08:23:33;101718.72;;;22.33;100.00
19831;BME280;10076;52.008;4.708;2023-05-07T08:25:59;101724.91;;;22.67;100.00
19831;BME280;10076;52.008;4.708;2023-05-07T08:28:25;101722.09;;;22.84;100.00
19831;BME280;10076;52.008;4.708;2023-05-07T08:30:50;101732.38;;;22.96;100.00
19831;BME280;10076;52.008;4.708;2023-05-07T08:33:16;101724.69;;;23.17;100.00
19831;BME280;10076;52.008;4.708;2023-05-07T08:35:41;101729.44;;;23.31;100.00
19831;BME280;10076;52.008;4.708;2023-05-07T08:38:07;101727.41;;;23.41;100.00
19831;BME280;10076;52.008;4.708;2023-05-07T08:40:37;101732.28;;;23.46;100.00
19831;BME280;10076;52.008;4.708;2023-05-07T08:43:02;101733.81;;;23.48;100.00
19831;BME280;10076;52.008;4.708;2023-05-07T08:45:30;101739.03;;;23.58;100.00
19831;BME280;10076;52.008;4.708;2023-05-07T08:48:03;101739.22;;;23.80;100.00
19831;BME280;10076;52.008;4.708;2023-05-07T08:50:30;101735.47;;;23.81;100.00
19831;BME280;10076;52.008;4.708;2023-05-07T08:52:56;101731.91;;;24.04;100.00
19831;BME280;10076;52.008;4.708;2023-05-07T08:55:23;101726.78;;;24.25;100.00
19831;BME280;10076;52.008;4.708;2023-05-07T08:57:49;101729.59;;;24.47;100.00
19831;BME280;10076;52.008;4.708;2023-05-07T09:00:15;101737.44;;;24.95;100.00
19831;BME280;10076;52.008;4.708;2023-05-07T09:02:40;101737.38;;;25.03;100.00
19831;BME280;10076;52.008;4.708;2023-05-07T09:05:06;101735.63;;;25.18;100.00
19831;BME280;10076;52.008;4.708;2023-05-07T09:07:31;101742.75;;;25.33;100.00
19831;BME280;10076;52.008;4.708;2023-05-07T09:09:57;101735.44;;;25.19;100.00
19831;BME280;10076;52.008;4.708;2023-05-07T09:12:23;101747.13;;;25.34;100.00
19831;BME280;10076;52.008;4.708;2023-05-07T09:14:49;101746.19;;;25.50;100.00
19831;BME280;10076;52.008;4.708;2023-05-07T09:17:16;101745.81;;;25.53;100.00
19831;BME280;10076;52.008;4.708;2023-05-07T09:19:43;101747.13;;;25.79;100.00
19831;BME280;10076;52.008;4.708;2023-05-07T09:22:09;101745.78;;;26.12;100.00
19831;BME280;10076;52.008;4.708;2023-05-07T09:24:34;101753.44;;;26.23;100.00
19831;BME280;10076;52.008;4.708;2023-05-07T09:27:05;101745.56;;;26.13;100.00
19831;BME280;10076;52.008;4.708;2023-05-07T09:29:33;101744.28;;;26.67;100.00
19831;BME280;10076;52.008;4.708;2023-05-07T09:32:07;101751.09;;;27.13;100.00
19831;BME280;10076;52.008;4.708;2023-05-07T09:34:33;101754.22;;;27.30;100.00
19831;BME280;10076;52.008;4.708;2023-05-07T09:37:03;101756.66;;;27.25;100.00
19831;BME280;10076;52.008;4.708;2023-05-07T09:39:42;101753.16;;;27.11;100.00
19831;BME280;10076;52.008;4.708;2023-05-07T09:42:08;101754.38;;;26.94;100.00
19831;BME280;10076;52.008;4.708;2023-05-07T09:44:34;101761.53;;;27.16;100.00
19831;BME280;10076;52.008;4.708;2023-05-07T09:47:00;101761.31;;;27.31;100.00
19831;BME280;10076;52.008;4.708;2023-05-07T09:49:29;101754.78;;;27.47;100.00
19831;BME280;10076;52.008;4.708;2023-05-07T09:51:55;101759.66;;;27.72;100.00
19831;BME280;10076;52.008;4.708;2023-05-07T09:54:22;101754.66;;;27.76;100.00
19831;BME280;10076;52.008;4.708;2023-05-07T09:56:51;101759.38;;;27.94;100.00
19831;BME280;10076;52.008;4.708;2023-05-07T09:59:17;101745.22;;;27.99;100.00
19831;BME280;10076;52.008;4.708;2023-05-07T10:01:44;101760.16;;;28.43;100.00
19831;BME280;10076;52.008;4.708;2023-05-07T10:04:10;101748.75;;;29.27;100.00
19831;BME280;10076;52.008;4.708;2023-05-07T10:06:36;101757.34;;;29.30;100.00
19831;BME280;10076;52.008;4.708;2023-05-07T10:09:03;101760.72;;;29.26;100.00
19831;BME280;10076;52.008;4.708;2023-05-07T10:11:35;101765.72;;;28.69;100.00
19831;BME280;10076;52.008;4.708;2023-05-07T10:14:01;101759.34;;;28.49;100.00
19831;BME280;10076;52.008;4.708;2023-05-07T10:16:29;101756.84;;;28.48;100.00
19831;BME280;10076;52.008;4.708;2023-05-07T10:18:57;101757.53;;;29.09;100.00
19831;BME280;10076;52.008;4.708;2023-05-07T10:21:23;101770.59;;;30.36;100.00
19831;BME280;10076;52.008;4.708;2023-05-07T10:23:50;101760.63;;;31.79;100.00
19831;BME280;10076;52.008;4.708;2023-05-07T10:28:45;101758.84;;;32.87;100.00
19831;BME280;10076;52.008;4.708;2023-05-07T10:33:51;101760.56;;;32.99;100.00
19831;BME280;10076;52.008;4.708;2023-05-07T10:36:18;101761.00;;;32.49;100.00
19831;BME280;10076;52.008;4.708;2023-05-07T10:38:45;101763.81;;;31.76;100.00
19831;BME280;10076;52.008;4.708;2023-05-07T10:41:11;101765.63;;;31.27;100.00
19831;BME280;10076;52.008;4.708;2023-05-07T10:43:40;101765.25;;;31.17;100.00
19831;BME280;10076;52.008;4.708;2023-05-07T10:46:18;101769.13;;;32.92;100.00
19831;BME280;10076;52.008;4.708;2023-05-07T10:49:06;101778.88;;;34.67;100.00
19831;BME280;10076;52.008;4.708;2023-05-07T10:51:32;101774.00;;;34.69;100.00
19831;BME280;10076;52.008;4.708;2023-05-07T10:54:24;101780.06;;;35.10;100.00
19831;BME280;10076;52.008;4.708;2023-05-07T10:56:50;101781.53;;;35.89;94.18
19831;BME280;10076;52.008;4.708;2023-05-07T11:02:02;101788.88;;;35.68;92.34
19831;BME280;10076;52.008;4.708;2023-05-07T11:04:29;101773.66;;;34.54;96.58
19831;BME280;10076;52.008;4.708;2023-05-07T11:07:26;101780.41;;;33.83;100.00
19831;BME280;10076;52.008;4.708;2023-05-07T11:15:13;101769.34;;;33.37;96.92
19831;BME280;10076;52.008;4.708;2023-05-07T11:17:54;101768.50;;;33.07;98.73
19831;BME280;10076;52.008;4.708;2023-05-07T11:20:20;101771.72;;;33.04;100.00
19831;BME280;10076;52.008;4.708;2023-05-07T11:22:46;101768.47;;;33.25;100.00
19831;BME280;10076;52.008;4.708;2023-05-07T11:25:17;101774.66;;;33.62;98.80
19831;BME280;10076;52.008;4.708;2023-05-07T11:27:44;101769.25;;;32.97;94.26
19831;BME280;10076;52.008;4.708;2023-05-07T11:30:10;101766.38;;;32.38;99.51
19831;BME280;10076;52.008;4.708;2023-05-07T11:32:36;101764.06;;;31.93;100.00
19831;BME280;10076;52.008;4.708;2023-05-07T11:35:01;101771.53;;;32.28;100.00
19831;BME280;10076;52.008;4.708;2023-05-07T11:37:27;101774.00;;;32.54;100.00
19831;BME280;10076;52.008;4.708;2023-05-07T11:40:08;101765.06;;;33.12;98.81
19831;BME280;10076;52.008;4.708;2023-05-07T11:42:35;101767.09;;;33.16;99.99
19831;BME280;10076;52.008;4.708;2023-05-07T11:45:03;101771.47;;;32.52;100.00
19831;BME280;10076;52.008;4.708;2023-05-07T11:47:31;101769.59;;;31.86;100.00
19831;BME280;10076;52.008;4.708;2023-05-07T11:50:02;101771.44;;;31.37;100.00
19831;BME280;10076;52.008;4.708;2023-05-07T11:52:28;101770.06;;;30.72;100.00
19831;BME280;10076;52.008;4.708;2023-05-07T11:54:58;101772.31;;;30.11;100.00
19831;BME280;10076;52.008;4.708;2023-05-07T11:57:25;101763.94;;;30.00;100.00
19831;BME280;10076;52.008;4.708;2023-05-07T11:59:54;101774.94;;;30.70;100.00
19831;BME280;10076;52.008;4.708;2023-05-07T12:02:19;101772.97;;;32.13;100.00
19831;BME280;10076;52.008;4.708;2023-05-07T12:04:45;101779.44;;;32.90;100.00
19831;BME280;10076;52.008;4.708;2023-05-07T12:07:14;101766.81;;;32.89;100.00
19831;BME280;10076;52.008;4.708;2023-05-07T12:09:41;101775.41;;;32.92;100.00
19831;BME280;10076;52.008;4.708;2023-05-07T12:12:06;101778.63;;;33.07;100.00
19831;BME280;10076;52.008;4.708;2023-05-07T12:14:32;101773.72;;;33.56;100.00
19831;BME280;10076;52.008;4.708;2023-05-07T12:16:58;101766.72;;;33.42;98.69
19831;BME280;10076;52.008;4.708;2023-05-07T12:19:24;101767.97;;;32.81;99.30
19831;BME280;10076;52.008;4.708;2023-05-07T12:21:49;101771.16;;;31.76;100.00
19831;BME280;10076;52.008;4.708;2023-05-07T12:24:16;101771.78;;;31.47;100.00
19831;BME280;10076;52.008;4.708;2023-05-07T12:26:41;101763.56;;;30.79;100.00
19831;BME280;10076;52.008;4.708;2023-05-07T12:29:07;101764.50;;;30.34;100.00
19831;BME280;10076;52.008;4.708;2023-05-07T12:31:32;101769.13;;;30.34;100.00
19831;BME280;10076;52.008;4.708;2023-05-07T12:33:57;101765.41;;;29.83;100.00
19831;BME280;10076;52.008;4.708;2023-05-07T12:36:23;101768.75;;;29.59;100.00
19831;BME280;10076;52.008;4.708;2023-05-07T12:38:51;101757.59;;;29.35;100.00
19831;BME280;10076;52.008;4.708;2023-05-07T12:41:17;101765.19;;;28.86;100.00
19831;BME280;10076;52.008;4.708;2023-05-07T12:43:46;101759.72;;;28.80;100.00
19831;BME280;10076;52.008;4.708;2023-05-07T12:46:12;101768.13;;;28.85;100.00
19831;BME280;10076;52.008;4.708;2023-05-07T12:48:44;101767.63;;;28.35;100.00